Time;durP1;ratioP1;P1;durP2;ratioP2;P2;SDS_P1;SDS_P2;PMS_P1;PMS_P2;Temp;Humidity;BMP_temperature;BMP_pressure;BME280_temperature;BME280_humidity;BME280_pressure;Samples;Min_cycle;Max_cycle;Signal;HPM_P1;HPM_P2
2021/05/01 00:01:18;;;;;;;29.95;13.00;;;;;;;;;;4957638;29;20122;-54
2021/05/01 00:03:44;;;;;;;27.60;14.02;;;;;;;;;;4957449;29;20046;-53
2021/05/01 00:06:10;;;;;;;26.65;16.23;;;;;;;;;;4957691;29;20051;-51
2021/05/01 00:08:36;;;;;;;62.28;41.05;;;;;;;;;;4957585;29;20042;-52
2021/05/01 00:11:03;;;;;;;39.92;23.73;;;;;;;;;;4940226;29;20035;-51
2021/05/01 00:13:33;;;;;;;129.63;92.10;;;;;;;;;;4957340;28;20030;-52
2021/05/01 00:16:00;;;;;;;31.88;18.77;;;;;;;;;;4957119;29;20030;-52
2021/05/01 00:18:26;;;;;;;22.73;12.35;;;;;;;;;;4957150;29;20070;-52
2021/05/01 00:20:52;;;;;;;37.92;26.13;;;;;;;;;;4957312;29;20074;-51
2021/05/01 00:23:19;;;;;;;45.17;26.70;;;;;;;;;;4957241;28;20024;-52
2021/05/01 00:25:45;;;;;;;44.05;26.88;;;;;;;;;;4957365;28;20029;-52
2021/05/01 00:28:13;;;;;;;60.78;38.42;;;;;;;;;;4957166;29;20106;-52
2021/05/01 00:30:40;;;;;;;35.00;19.83;;;;;;;;;;4957204;28;20492;-52
2021/05/01 00:33:06;;;;;;;28.90;15.75;;;;;;;;;;4957399;29;20031;-52
2021/05/01 00:35:33;;;;;;;53.00;31.65;;;;;;;;;;4956467;28;20546;-52
2021/05/01 00:37:59;;;;;;;38.33;20.17;;;;;;;;;;4957138;29;20115;-52
2021/05/01 00:40:27;;;;;;;29.80;17.55;;;;;;;;;;4957129;29;20094;-52
2021/05/01 00:42:53;;;;;;;34.78;18.73;;;;;;;;;;4956890;29;20035;-52
2021/05/01 00:45:19;;;;;;;32.33;14.32;;;;;;;;;;4956825;28;20491;-52
2021/05/01 00:47:45;;;;;;;51.65;28.60;;;;;;;;;;4956722;28;20074;-51
2021/05/01 00:50:12;;;;;;;27.83;12.18;;;;;;;;;;4956739;29;20506;-52
2021/05/01 00:52:39;;;;;;;23.15;11.35;;;;;;;;;;4956750;29;20027;-53
2021/05/01 00:55:05;;;;;;;31.73;15.20;;;;;;;;;;4956634;29;20439;-53
2021/05/01 00:57:32;;;;;;;25.30;13.35;;;;;;;;;;4956712;29;20043;-52
2021/05/01 01:00:00;;;;;;;34.80;20.55;;;;;;;;;;4956544;28;20050;-53
2021/05/01 01:02:27;;;;;;;37.80;20.23;;;;;;;;;;4956682;28;20450;-53
2021/05/01 01:04:55;;;;;;;32.85;17.70;;;;;;;;;;4956299;29;20046;-52
2021/05/01 01:07:22;;;;;;;53.72;29.42;;;;;;;;;;4956499;29;20062;-52
2021/05/01 01:09:49;;;;;;;27.42;14.23;;;;;;;;;;4956338;29;20035;-53
2021/05/01 01:12:16;;;;;;;33.13;19.70;;;;;;;;;;4956394;28;20027;-53
2021/05/01 01:14:42;;;;;;;33.33;17.73;;;;;;;;;;4939160;29;20074;-53
2021/05/01 01:17:08;;;;;;;46.35;26.90;;;;;;;;;;4956310;28;20059;-51
2021/05/01 01:19:37;;;;;;;31.88;17.80;;;;;;;;;;4956234;28;20090;-51
2021/05/01 01:22:03;;;;;;;35.20;20.35;;;;;;;;;;4956140;29;20190;-52
2021/05/01 01:24:30;;;;;;;23.42;13.68;;;;;;;;;;4956072;28;20039;-51
2021/05/01 01:26:57;;;;;;;34.58;20.85;;;;;;;;;;4956207;29;20079;-52
2021/05/01 01:29:25;;;;;;;28.40;16.35;;;;;;;;;;4956716;29;20035;-51
2021/05/01 01:31:51;;;;;;;23.08;11.13;;;;;;;;;;4956138;29;20388;-51
2021/05/01 01:34:17;;;;;;;19.15;12.70;;;;;;;;;;4938555;29;20036;-52
2021/05/01 01:36:43;;;;;;;36.70;20.17;;;;;;;;;;4939021;29;20024;-52
2021/05/01 01:39:11;;;;;;;37.60;23.92;;;;;;;;;;4955919;28;20035;-52
2021/05/01 01:41:37;;;;;;;19.23;10.85;;;;;;;;;;4955882;29;20019;-52
2021/05/01 01:44:04;;;;;;;21.83;10.38;;;;;;;;;;4955627;28;20503;-52
2021/05/01 01:46:30;;;;;;;24.35;13.25;;;;;;;;;;4955097;28;20109;-52
2021/05/01 01:48:58;;;;;;;21.13;12.85;;;;;;;;;;4955888;29;20043;-50
2021/05/01 01:51:24;;;;;;;91.07;53.63;;;;;;;;;;4955866;29;20415;-52
2021/05/01 01:53:51;;;;;;;20.20;13.88;;;;;;;;;;4955692;29;20019;-53
2021/05/01 01:56:17;;;;;;;24.48;13.52;;;;;;;;;;4955828;29;20027;-52
2021/05/01 01:58:43;;;;;;;20.98;13.25;;;;;;;;;;4955522;29;20027;-53
2021/05/01 02:01:10;;;;;;;22.55;14.50;;;;;;;;;;4955626;29;20030;-52
2021/05/01 02:03:38;;;;;;;41.67;22.33;;;;;;;;;;4955597;29;20062;-51
2021/05/01 02:06:05;;;;;;;45.67;28.38;;;;;;;;;;4955246;29;20047;-51
2021/05/01 02:08:31;;;;;;;55.20;34.80;;;;;;;;;;4955654;29;20019;-51
2021/05/01 02:10:57;;;;;;;51.03;27.83;;;;;;;;;;4955447;29;20083;-53
2021/05/01 02:13:26;;;;;;;31.98;20.27;;;;;;;;;;4955651;29;20031;-53
2021/05/01 02:15:52;;;;;;;28.88;15.70;;;;;;;;;;4955568;29;20487;-53
2021/05/01 02:18:18;;;;;;;35.13;21.40;;;;;;;;;;4955426;28;20031;-51
2021/05/01 02:20:44;;;;;;;41.17;28.10;;;;;;;;;;4955374;29;20069;-53
2021/05/01 02:23:10;;;;;;;30.67;20.70;;;;;;;;;;4955349;29;20039;-53
2021/05/01 02:25:37;;;;;;;27.85;17.67;;;;;;;;;;4955729;29;20424;-53
2021/05/01 02:28:04;;;;;;;25.60;16.23;;;;;;;;;;4955210;29;20063;-52
2021/05/01 02:30:30;;;;;;;32.35;20.05;;;;;;;;;;4955331;29;20034;-52
2021/05/01 02:32:57;;;;;;;17.70;9.55;;;;;;;;;;4955531;28;20019;-53
2021/05/01 02:35:27;;;;;;;25.60;13.00;;;;;;;;;;4955158;29;20028;-53
2021/05/01 02:37:54;;;;;;;17.65;11.90;;;;;;;;;;4955399;29;20055;-51
2021/05/01 02:40:20;;;;;;;27.75;15.05;;;;;;;;;;4955390;28;20384;-52
2021/05/01 02:42:47;;;;;;;16.48;11.10;;;;;;;;;;4955350;28;20106;-52
2021/05/01 02:45:14;;;;;;;15.10;10.57;;;;;;;;;;4955529;28;20040;-47
2021/05/01 02:47:40;;;;;;;20.38;13.60;;;;;;;;;;4955092;29;20031;-51
2021/05/01 02:50:07;;;;;;;22.75;12.60;;;;;;;;;;4955033;29;20027;-50
2021/05/01 02:52:33;;;;;;;24.05;14.73;;;;;;;;;;4955038;29;20062;-48
2021/05/01 02:54:59;;;;;;;36.65;20.33;;;;;;;;;;4955036;29;20167;-48
2021/05/01 02:57:25;;;;;;;42.65;28.08;;;;;;;;;;4955874;28;20034;-53
2021/05/01 02:59:52;;;;;;;44.95;26.40;;;;;;;;;;4958766;29;20479;-52
2021/05/01 03:02:18;;;;;;;20.52;13.30;;;;;;;;;;4958704;29;20468;-52
2021/05/01 03:04:44;;;;;;;40.00;21.17;;;;;;;;;;4958715;29;20110;-50
2021/05/01 03:07:10;;;;;;;25.17;15.07;;;;;;;;;;4958644;28;20047;-52
2021/05/01 03:09:36;;;;;;;23.90;15.07;;;;;;;;;;4958673;29;20057;-52
2021/05/01 03:12:02;;;;;;;19.08;13.45;;;;;;;;;;4958446;28;20024;-48
2021/05/01 03:14:29;;;;;;;24.58;15.75;;;;;;;;;;4959011;29;20471;-48
2021/05/01 03:16:55;;;;;;;19.90;13.55;;;;;;;;;;4958486;29;20114;-48
2021/05/01 03:19:21;;;;;;;24.55;13.50;;;;;;;;;;4958421;29;20032;-48
2021/05/01 03:21:50;;;;;;;20.80;10.32;;;;;;;;;;4958559;28;20472;-47
2021/05/01 03:24:16;;;;;;;22.90;13.90;;;;;;;;;;4958437;29;20035;-52
2021/05/01 03:26:42;;;;;;;28.42;12.77;;;;;;;;;;4941304;28;20023;-48
2021/05/01 03:29:08;;;;;;;22.77;13.32;;;;;;;;;;4958399;29;20490;-53
2021/05/01 03:31:34;;;;;;;21.67;12.80;;;;;;;;;;4958353;29;20031;-49
2021/05/01 03:34:00;;;;;;;23.17;12.73;;;;;;;;;;4958663;29;20027;-53
2021/05/01 03:36:27;;;;;;;24.98;12.38;;;;;;;;;;4958228;28;20365;-52
2021/05/01 03:38:53;;;;;;;24.75;15.38;;;;;;;;;;4958285;29;20023;-48
2021/05/01 03:41:19;;;;;;;26.70;13.05;;;;;;;;;;4958278;28;20023;-51
2021/05/01 03:43:45;;;;;;;22.02;12.88;;;;;;;;;;4958003;28;20035;-52
2021/05/01 03:46:13;;;;;;;24.02;12.98;;;;;;;;;;4957943;29;20535;-52
2021/05/01 03:48:39;;;;;;;24.98;12.68;;;;;;;;;;4958044;29;20064;-52
2021/05/01 03:51:06;;;;;;;20.80;12.05;;;;;;;;;;4957961;29;20031;-51
2021/05/01 03:53:32;;;;;;;22.80;11.85;;;;;;;;;;4957934;28;20062;-52
2021/05/01 03:55:58;;;;;;;21.83;11.85;;;;;;;;;;4957823;29;20027;-51
2021/05/01 03:58:24;;;;;;;22.92;13.30;;;;;;;;;;4957837;29;20031;-51
2021/05/01 04:00:51;;;;;;;17.38;10.40;;;;;;;;;;4957884;29;20089;-52
2021/05/01 04:03:17;;;;;;;21.75;10.15;;;;;;;;;;4957781;29;20027;-51
2021/05/01 04:05:43;;;;;;;22.35;10.10;;;;;;;;;;4957909;29;20502;-52
2021/05/01 04:08:09;;;;;;;16.58;10.25;;;;;;;;;;4957818;28;20039;-52
2021/05/01 04:10:38;;;;;;;16.65;9.98;;;;;;;;;;4956745;28;20030;-51
2021/05/01 04:13:04;;;;;;;18.20;10.13;;;;;;;;;;4957615;29;20468;-52
2021/05/01 04:15:30;;;;;;;19.42;10.73;;;;;;;;;;4957645;29;20379;-52
2021/05/01 04:17:56;;;;;;;21.20;10.10;;;;;;;;;;4957347;28;20027;-51
2021/05/01 04:20:25;;;;;;;15.25;9.57;;;;;;;;;;4957408;29;20086;-52
2021/05/01 04:22:51;;;;;;;16.95;9.20;;;;;;;;;;4957672;29;20031;-52
2021/05/01 04:25:17;;;;;;;18.20;9.65;;;;;;;;;;4957216;29;20479;-51
2021/05/01 04:27:43;;;;;;;19.38;9.50;;;;;;;;;;4957402;29;20023;-51
2021/05/01 04:30:09;;;;;;;18.77;9.20;;;;;;;;;;4939863;29;20428;-50
2021/05/01 04:32:36;;;;;;;19.58;10.32;;;;;;;;;;4957255;29;20032;-52
2021/05/01 04:35:03;;;;;;;21.40;10.13;;;;;;;;;;4957316;28;20361;-51
2021/05/01 04:37:29;;;;;;;17.88;9.82;;;;;;;;;;4957223;29;20054;-51
2021/05/01 04:39:55;;;;;;;26.90;10.05;;;;;;;;;;4957225;29;20039;-49
2021/05/01 04:42:21;;;;;;;20.92;10.48;;;;;;;;;;4957211;29;20027;-51
2021/05/01 04:44:50;;;;;;;19.48;10.32;;;;;;;;;;4956749;28;20047;-52
2021/05/01 04:47:19;;;;;;;22.08;10.00;;;;;;;;;;4956974;29;20023;-51
2021/05/01 04:49:45;;;;;;;23.52;10.70;;;;;;;;;;4956843;29;20080;-51
2021/05/01 04:52:11;;;;;;;20.08;9.32;;;;;;;;;;4957075;29;20114;-51
2021/05/01 04:54:37;;;;;;;17.58;9.75;;;;;;;;;;4956730;29;20034;-51
2021/05/01 04:57:03;;;;;;;17.00;9.77;;;;;;;;;;4956688;29;20063;-52
2021/05/01 04:59:29;;;;;;;19.35;9.95;;;;;;;;;;4939461;29;20039;-52
2021/05/01 05:01:55;;;;;;;18.70;10.77;;;;;;;;;;4956686;29;20031;-50
2021/05/01 05:04:22;;;;;;;15.93;9.75;;;;;;;;;;4956561;29;20046;-52
2021/05/01 05:06:48;;;;;;;17.60;9.85;;;;;;;;;;4956375;28;20134;-52
2021/05/01 05:09:14;;;;;;;22.30;9.90;;;;;;;;;;4956627;29;20455;-52
2021/05/01 05:11:40;;;;;;;20.20;10.70;;;;;;;;;;4956387;29;20024;-52
2021/05/01 05:14:06;;;;;;;22.88;11.52;;;;;;;;;;4956594;29;20027;-52
2021/05/01 05:16:32;;;;;;;17.67;11.02;;;;;;;;;;4956514;29;20031;-52
2021/05/01 05:18:58;;;;;;;17.65;10.50;;;;;;;;;;4956391;29;20024;-52
2021/05/01 05:21:25;;;;;;;17.98;10.32;;;;;;;;;;4956344;28;20027;-52
2021/05/01 05:23:51;;;;;;;20.90;12.30;;;;;;;;;;4956212;29;20035;-52
2021/05/01 05:26:17;;;;;;;20.45;10.75;;;;;;;;;;4956389;29;20026;-52
2021/05/01 05:28:43;;;;;;;20.35;11.20;;;;;;;;;;4956237;28;20535;-51
2021/05/01 05:31:09;;;;;;;19.88;11.13;;;;;;;;;;4956247;28;20114;-51
2021/05/01 05:33:35;;;;;;;23.98;11.43;;;;;;;;;;4956012;29;20031;-47
2021/05/01 05:36:01;;;;;;;18.88;11.52;;;;;;;;;;4956179;29;20062;-52
2021/05/01 05:38:27;;;;;;;20.17;10.93;;;;;;;;;;4956160;29;20051;-51
2021/05/01 05:40:53;;;;;;;21.23;10.98;;;;;;;;;;4956132;29;20055;-51
2021/05/01 05:43:20;;;;;;;17.98;11.60;;;;;;;;;;4956052;29;20031;-51
2021/05/01 05:45:47;;;;;;;26.52;12.23;;;;;;;;;;4955924;29;20039;-51
2021/05/01 05:48:13;;;;;;;21.08;11.57;;;;;;;;;;4955837;29;20042;-51
2021/05/01 05:50:39;;;;;;;21.67;10.75;;;;;;;;;;4955631;28;20027;-51
2021/05/01 05:53:08;;;;;;;20.98;10.80;;;;;;;;;;4955817;29;20031;-52
2021/05/01 05:55:34;;;;;;;21.08;11.57;;;;;;;;;;4955844;29;20020;-52
2021/05/01 05:58:00;;;;;;;21.63;11.30;;;;;;;;;;4955614;29;20391;-50
2021/05/01 06:00:26;;;;;;;19.98;10.32;;;;;;;;;;4955749;28;20027;-51
2021/05/01 06:02:53;;;;;;;22.40;10.18;;;;;;;;;;4955742;28;20031;-51
2021/05/01 06:05:29;;;;;;;18.95;11.43;;;;;;;;;;4955601;29;20035;-50
2021/05/01 06:07:58;;;;;;;23.30;10.65;;;;;;;;;;4955491;29;20051;-52
2021/05/01 06:10:27;;;;;;;22.02;10.20;;;;;;;;;;4955580;29;20036;-53
2021/05/01 06:12:53;;;;;;;21.77;10.65;;;;;;;;;;4955503;28;20468;-53
2021/05/01 06:15:20;;;;;;;15.18;9.52;;;;;;;;;;4955539;29;20051;-53
2021/05/01 06:17:47;;;;;;;17.67;10.35;;;;;;;;;;4955551;28;20061;-52
2021/05/01 06:20:14;;;;;;;20.92;10.00;;;;;;;;;;4955408;29;20059;-52
2021/05/01 06:22:41;;;;;;;21.30;10.35;;;;;;;;;;4955661;29;20098;-52
2021/05/01 06:25:08;;;;;;;20.95;9.15;;;;;;;;;;4955359;29;20039;-52
2021/05/01 06:27:34;;;;;;;16.40;9.48;;;;;;;;;;4955216;29;20078;-52
2021/05/01 06:30:01;;;;;;;14.02;8.85;;;;;;;;;;4937878;29;20078;-52
2021/05/01 06:32:27;;;;;;;15.55;8.98;;;;;;;;;;4957707;28;20027;-51
2021/05/01 06:34:54;;;;;;;17.90;8.65;;;;;;;;;;4961621;28;20062;-51
2021/05/01 06:37:21;;;;;;;18.98;8.38;;;;;;;;;;4961574;29;20039;-51
2021/05/01 06:39:49;;;;;;;19.95;10.85;;;;;;;;;;4961369;28;20031;-51
2021/05/01 06:42:18;;;;;;;19.20;10.70;;;;;;;;;;4961365;29;20031;-46
2021/05/01 06:44:49;;;;;;;22.92;12.88;;;;;;;;;;4961378;28;20455;-50
2021/05/01 06:47:17;;;;;;;29.25;15.27;;;;;;;;;;4961483;28;20082;-51
2021/05/01 06:49:51;;;;;;;18.02;8.15;;;;;;;;;;4961420;28;20031;-52
2021/05/01 06:52:17;;;;;;;26.48;14.85;;;;;;;;;;4961496;28;20028;-52
2021/05/01 06:54:47;;;;;;;31.23;17.45;;;;;;;;;;4961248;28;20031;-51
2021/05/01 06:57:14;;;;;;;21.65;12.05;;;;;;;;;;4961432;28;20057;-51
2021/05/01 06:59:41;;;;;;;28.58;13.10;;;;;;;;;;4961473;29;20432;-51
2021/05/01 07:02:08;;;;;;;23.85;9.82;;;;;;;;;;4961533;29;20416;-51
2021/05/01 07:04:35;;;;;;;26.75;11.30;;;;;;;;;;4961154;29;20035;-51
2021/05/01 07:07:01;;;;;;;31.08;18.88;;;;;;;;;;4961100;28;20055;-51
2021/05/01 07:09:28;;;;;;;41.63;20.05;;;;;;;;;;4961172;29;20052;-51
2021/05/01 07:11:54;;;;;;;22.48;11.30;;;;;;;;;;4961125;28;20027;-51
2021/05/01 07:14:21;;;;;;;32.53;16.30;;;;;;;;;;4961242;29;20050;-50
2021/05/01 07:16:48;;;;;;;32.63;17.13;;;;;;;;;;4961097;28;20074;-51
2021/05/01 07:19:14;;;;;;;29.88;15.48;;;;;;;;;;4961087;28;20085;-52
2021/05/01 07:21:40;;;;;;;113.13;59.92;;;;;;;;;;4960975;29;20109;-53
2021/05/01 07:24:06;;;;;;;37.97;16.83;;;;;;;;;;4961123;28;20034;-53
2021/05/01 07:26:34;;;;;;;69.25;31.40;;;;;;;;;;4961497;28;20030;-53
2021/05/01 07:29:02;;;;;;;22.00;9.95;;;;;;;;;;4961473;28;20023;-51
2021/05/01 07:31:31;;;;;;;19.48;11.75;;;;;;;;;;4961863;28;20046;-52
2021/05/01 07:33:58;;;;;;;20.17;11.57;;;;;;;;;;4961067;28;20054;-53
2021/05/01 07:36:45;;;;;;;26.13;13.50;;;;;;;;;;4961091;28;20082;-52
2021/05/01 07:39:13;;;;;;;35.00;17.65;;;;;;;;;;4961037;28;20031;-52
2021/05/01 07:41:43;;;;;;;19.80;11.98;;;;;;;;;;4961072;29;20494;-53
2021/05/01 07:44:10;;;;;;;22.63;10.67;;;;;;;;;;4958349;28;20035;-50
2021/05/01 07:46:39;;;;;;;25.00;10.43;;;;;;;;;;4958139;29;20384;-52
2021/05/01 07:49:09;;;;;;;20.48;9.00;;;;;;;;;;4958016;29;20254;-55
2021/05/01 07:51:36;;;;;;;13.75;9.10;;;;;;;;;;4958008;29;20383;-52
2021/05/01 07:54:04;;;;;;;30.83;11.13;;;;;;;;;;4957792;29;20027;-51
2021/05/01 07:56:31;;;;;;;25.25;12.40;;;;;;;;;;4957704;29;20028;-53
2021/05/01 07:59:01;;;;;;;44.25;22.02;;;;;;;;;;4957722;29;20035;-52
2021/05/01 08:01:27;;;;;;;36.53;17.50;;;;;;;;;;4957769;29;20020;-53
2021/05/01 08:03:54;;;;;;;19.48;11.15;;;;;;;;;;4958146;29;20027;-50
2021/05/01 08:06:20;;;;;;;14.80;8.07;;;;;;;;;;4957377;28;20515;-52
2021/05/01 08:08:47;;;;;;;17.30;10.10;;;;;;;;;;4957606;28;20075;-52
2021/05/01 08:11:13;;;;;;;24.55;13.38;;;;;;;;;;4957669;29;20070;-51
2021/05/01 08:13:39;;;;;;;19.33;10.02;;;;;;;;;;4957469;28;20034;-53
2021/05/01 08:16:05;;;;;;;16.65;10.30;;;;;;;;;;4957431;28;20030;-52
2021/05/01 08:18:31;;;;;;;20.95;11.50;;;;;;;;;;4957343;29;20039;-51
2021/05/01 08:20:57;;;;;;;15.90;10.50;;;;;;;;;;4957282;28;20068;-52
2021/05/01 08:23:23;;;;;;;14.30;8.43;;;;;;;;;;4957313;29;20023;-50
2021/05/01 08:25:50;;;;;;;13.80;8.55;;;;;;;;;;4957401;28;20121;-48
2021/05/01 08:28:18;;;;;;;20.20;12.30;;;;;;;;;;4957154;28;20081;-50
2021/05/01 08:30:45;;;;;;;18.58;9.73;;;;;;;;;;4957389;29;20031;-52
2021/05/01 08:33:11;;;;;;;17.08;9.02;;;;;;;;;;4957398;29;20383;-53
2021/05/01 08:35:39;;;;;;;21.92;14.02;;;;;;;;;;4957186;29;20075;-52
2021/05/01 08:38:05;;;;;;;15.50;8.48;;;;;;;;;;4957142;29;20065;-53
2021/05/01 08:40:32;;;;;;;16.67;8.50;;;;;;;;;;4957045;29;20532;-52
2021/05/01 08:43:01;;;;;;;20.02;9.07;;;;;;;;;;4957069;28;20032;-52
2021/05/01 08:45:27;;;;;;;19.92;13.68;;;;;;;;;;4956890;29;20038;-52
2021/05/01 08:47:54;;;;;;;13.15;8.00;;;;;;;;;;4957394;29;20047;-53
2021/05/01 08:50:26;;;;;;;15.10;7.38;;;;;;;;;;4956678;28;20031;-54
2021/05/01 08:52:52;;;;;;;15.18;8.05;;;;;;;;;;4956747;29;20027;-52
2021/05/01 08:55:21;;;;;;;14.07;7.57;;;;;;;;;;4956655;28;20027;-53
2021/05/01 08:57:47;;;;;;;13.80;7.50;;;;;;;;;;4956753;29;20027;-56
2021/05/01 09:00:13;;;;;;;12.65;6.85;;;;;;;;;;4956684;29;20078;-57
2021/05/01 09:02:40;;;;;;;13.40;6.18;;;;;;;;;;4956646;29;20031;-51
2021/05/01 09:05:08;;;;;;;18.38;8.13;;;;;;;;;;4956499;28;20035;-53
2021/05/01 09:07:34;;;;;;;23.83;11.68;;;;;;;;;;4956380;28;20047;-53
2021/05/01 09:10:01;;;;;;;15.82;9.30;;;;;;;;;;4956640;29;20038;-53
2021/05/01 09:12:36;;;;;;;19.10;8.35;;;;;;;;;;4956539;29;20019;-54
2021/05/01 09:15:03;;;;;;;14.07;8.75;;;;;;;;;;4956314;29;20023;-52
2021/05/01 09:17:30;;;;;;;15.63;8.63;;;;;;;;;;4956580;28;20165;-54
2021/05/01 09:20:10;;;;;;;14.07;6.97;;;;;;;;;;4956419;29;20114;-54
2021/05/01 09:22:51;;;;;;;13.13;7.22;;;;;;;;;;4956260;29;20060;-52
2021/05/01 09:25:18;;;;;;;15.10;7.78;;;;;;;;;;4955973;29;20043;-53
2021/05/01 09:27:58;;;;;;;17.15;7.80;;;;;;;;;;4956508;29;20019;-53
2021/05/01 09:30:26;;;;;;;11.05;7.40;;;;;;;;;;4956067;28;20027;-52
2021/05/01 09:32:52;;;;;;;19.75;8.60;;;;;;;;;;4956224;29;20027;-52
2021/05/01 09:35:19;;;;;;;22.65;11.13;;;;;;;;;;4956054;29;20059;-52
2021/05/01 09:37:46;;;;;;;15.45;8.40;;;;;;;;;;4956063;29;20111;-52
2021/05/01 09:40:12;;;;;;;13.52;8.75;;;;;;;;;;4955980;29;20110;-52
2021/05/01 09:42:39;;;;;;;17.65;8.07;;;;;;;;;;4956086;29;20058;-53
2021/05/01 09:45:18;;;;;;;15.52;7.57;;;;;;;;;;4955956;29;20038;-52
2021/05/01 09:47:48;;;;;;;14.82;7.53;;;;;;;;;;4955859;29;20059;-52
2021/05/01 09:50:22;;;;;;;15.52;9.70;;;;;;;;;;4955996;28;20038;-52
2021/05/01 09:53:02;;;;;;;16.67;10.27;;;;;;;;;;4955747;29;20015;-52
2021/05/01 09:55:47;;;;;;;17.27;8.57;;;;;;;;;;4955561;29;20455;-52
2021/05/01 09:58:17;;;;;;;16.27;8.52;;;;;;;;;;4955841;29;20035;-52
2021/05/01 10:00:43;;;;;;;14.70;7.13;;;;;;;;;;4938411;29;20056;-52
2021/05/01 10:03:39;;;;;;;20.20;7.40;;;;;;;;;;4955636;29;20035;-52
2021/05/01 10:06:06;;;;;;;10.98;6.80;;;;;;;;;;4877780;29;20075;-51
2021/05/01 10:08:32;;;;;;;14.50;7.43;;;;;;;;;;4877227;29;20026;-52
2021/05/01 10:11:08;;;;;;;15.85;6.35;;;;;;;;;;4877789;29;20455;-52
2021/05/01 10:13:36;;;;;;;11.48;5.88;;;;;;;;;;4877983;29;20036;-50
2021/05/01 10:16:08;;;;;;;16.23;6.57;;;;;;;;;;4877672;29;20047;-50
2021/05/01 10:18:34;;;;;;;12.52;6.80;;;;;;;;;;4877693;29;20505;-53
2021/05/01 10:21:00;;;;;;;19.02;11.13;;;;;;;;;;4877814;29;20033;-52
2021/05/01 10:23:26;;;;;;;18.23;8.80;;;;;;;;;;4877622;29;20398;-52
2021/05/01 10:25:52;;;;;;;18.65;8.48;;;;;;;;;;4877623;29;20037;-52
2021/05/01 10:28:19;;;;;;;22.23;10.40;;;;;;;;;;4877542;29;20073;-52
2021/05/01 10:33:37;;;;;;;16.98;7.65;;;;;;;;;;4877525;29;20486;-53
2021/05/01 10:36:05;;;;;;;20.38;9.07;;;;;;;;;;4877482;29;20077;-52
2021/05/01 10:38:33;;;;;;;18.65;10.50;;;;;;;;;;4877720;29;20033;-52
2021/05/01 10:41:03;;;;;;;16.23;9.32;;;;;;;;;;4877500;29;20081;-53
2021/05/01 10:43:39;;;;;;;18.60;10.23;;;;;;;;;;4948256;29;20376;-53
2021/05/01 10:46:07;;;;;;;20.15;10.57;;;;;;;;;;4955173;28;20039;-53
2021/05/01 10:48:47;;;;;;;20.80;10.85;;;;;;;;;;4955237;29;20027;-52
2021/05/01 10:51:14;;;;;;;21.27;11.48;;;;;;;;;;4954938;28;20027;-52
2021/05/01 10:53:41;;;;;;;21.20;10.50;;;;;;;;;;4955118;29;20027;-53
2021/05/01 10:56:08;;;;;;;20.40;9.93;;;;;;;;;;4955003;29;20031;-53
2021/05/01 10:58:34;;;;;;;19.02;8.88;;;;;;;;;;4955027;28;20027;-53
2021/05/01 11:01:00;;;;;;;14.60;7.30;;;;;;;;;;4954945;29;20031;-53
2021/05/01 11:03:27;;;;;;;17.65;9.15;;;;;;;;;;4955171;29;20086;-52
2021/05/01 11:05:55;;;;;;;15.30;6.93;;;;;;;;;;4954669;28;20506;-52
2021/05/01 11:08:26;;;;;;;21.10;9.80;;;;;;;;;;4937732;29;20039;-52
2021/05/01 11:10:52;;;;;;;;;;;;;;;;;;4955316;28;20472;-52
2021/05/01 11:13:24;;;;;;;15.73;7.68;;;;;;;;;;4954842;29;19913;-51
2021/05/01 11:15:51;;;;;;;14.38;7.82;;;;;;;;;;4955110;29;20027;-52
2021/05/01 11:18:20;;;;;;;15.32;9.18;;;;;;;;;;4955416;28;20031;-52
2021/05/01 11:20:47;;;;;;;17.05;6.00;;;;;;;;;;4958577;28;20027;-53
2021/05/01 11:23:15;;;;;;;13.80;7.07;;;;;;;;;;4958598;29;20106;-52
2021/05/01 11:25:42;;;;;;;15.55;5.50;;;;;;;;;;4958477;28;20039;-53
2021/05/01 11:28:12;;;;;;;13.80;6.05;;;;;;;;;;4958322;29;20077;-51
2021/05/01 11:30:39;;;;;;;16.88;7.68;;;;;;;;;;4958557;29;20031;-52
2021/05/01 11:33:08;;;;;;;15.20;7.18;;;;;;;;;;4958428;29;20023;-51
2021/05/01 11:35:35;;;;;;;18.48;5.32;;;;;;;;;;4958325;28;20062;-52
2021/05/01 11:38:04;;;;;;;12.55;4.93;;;;;;;;;;4958319;29;20459;-52
2021/05/01 11:40:36;;;;;;;23.55;9.10;;;;;;;;;;4958159;29;20046;-52
2021/05/01 11:43:03;;;;;;;12.25;4.50;;;;;;;;;;4958598;29;20034;-52
2021/05/01 11:45:32;;;;;;;16.63;6.85;;;;;;;;;;4958186;29;20086;-52
2021/05/01 11:48:04;;;;;;;15.90;6.50;;;;;;;;;;4958065;28;20506;-52
2021/05/01 11:50:33;;;;;;;16.55;6.28;;;;;;;;;;4958168;29;20027;-52
2021/05/01 11:53:20;;;;;;;20.48;7.95;;;;;;;;;;4958060;29;20045;-53
2021/05/01 11:55:49;;;;;;;15.07;6.85;;;;;;;;;;4957730;29;20031;-52
2021/05/01 11:58:28;;;;;;;21.02;7.80;;;;;;;;;;4957953;29;20024;-52
2021/05/01 12:00:55;;;;;;;20.90;5.35;;;;;;;;;;4957650;29;20027;-52
2021/05/01 12:03:24;;;;;;;23.23;6.60;;;;;;;;;;4957668;29;20024;-53
2021/05/01 12:06:16;;;;;;;14.25;5.85;;;;;;;;;;4957403;29;20039;-51
2021/05/01 12:08:42;;;;;;;11.00;5.20;;;;;;;;;;4880188;29;20085;-53
2021/05/01 12:11:08;;;;;;;13.27;5.97;;;;;;;;;;4879871;29;20033;-52
2021/05/01 12:13:35;;;;;;;14.13;4.78;;;;;;;;;;4880006;29;20044;-53
2021/05/01 12:16:02;;;;;;;13.20;4.45;;;;;;;;;;4879570;29;20032;-51
2021/05/01 12:18:47;;;;;;;16.05;5.78;;;;;;;;;;4879665;29;20033;-53
2021/05/01 12:21:36;;;;;;;13.43;5.97;;;;;;;;;;4879455;29;20052;-52
2021/05/01 12:24:02;;;;;;;16.33;4.95;;;;;;;;;;4879107;29;20545;-52
2021/05/01 12:26:35;;;;;;;21.27;6.13;;;;;;;;;;4879436;29;20136;-53
2021/05/01 12:31:50;;;;;;;21.33;5.88;;;;;;;;;;4879099;29;20363;-52
2021/05/01 12:34:16;;;;;;;17.88;6.07;;;;;;;;;;4879043;29;20029;-57
2021/05/01 12:36:48;;;;;;;14.63;5.78;;;;;;;;;;4879110;29;20037;-52
2021/05/01 12:39:15;;;;;;;17.98;9.07;;;;;;;;;;4879157;29;20033;-46
2021/05/01 12:41:43;;;;;;;16.10;9.30;;;;;;;;;;4879248;29;20040;-55
2021/05/01 12:44:09;;;;;;;225.43;140.75;;;;;;;;;;4879299;29;20060;-53
2021/05/01 12:46:40;;;;;;;19.90;10.07;;;;;;;;;;4946719;29;20078;-52
2021/05/01 12:49:17;;;;;;;22.88;10.05;;;;;;;;;;4956947;29;20037;-51
2021/05/01 12:52:00;;;;;;;16.67;4.82;;;;;;;;;;4956728;29;20035;-52
2021/05/01 12:54:30;;;;;;;19.33;8.63;;;;;;;;;;4956850;29;20019;-53
2021/05/01 12:57:04;;;;;;;20.15;8.32;;;;;;;;;;4957104;29;20082;-52
2021/05/01 12:59:41;;;;;;;40.97;23.52;;;;;;;;;;4956698;29;20098;-51
2021/05/01 13:02:14;;;;;;;29.83;14.50;;;;;;;;;;4956501;29;20035;-50
2021/05/01 13:04:42;;;;;;;23.20;9.77;;;;;;;;;;4956443;29;20036;-52
2021/05/01 13:07:10;;;;;;;16.05;4.35;;;;;;;;;;4956586;29;20499;-53
2021/05/01 13:09:46;;;;;;;12.30;4.90;;;;;;;;;;4956494;29;20034;-54
2021/05/01 13:12:15;;;;;;;19.70;5.88;;;;;;;;;;4956452;28;20042;-52
2021/05/01 13:14:44;;;;;;;18.15;4.78;;;;;;;;;;4956454;29;20110;-52
2021/05/01 13:17:13;;;;;;;16.80;6.38;;;;;;;;;;4956276;29;20126;-52
2021/05/01 13:19:39;;;;;;;12.32;4.18;;;;;;;;;;4956834;29;20054;-53
2021/05/01 13:22:06;;;;;;;14.10;3.92;;;;;;;;;;4956373;29;20082;-53
2021/05/01 13:24:33;;;;;;;9.85;3.80;;;;;;;;;;4956196;29;20468;-51
2021/05/01 13:27:00;;;;;;;15.57;4.95;;;;;;;;;;4956376;29;20510;-54
2021/05/01 13:29:26;;;;;;;14.27;4.47;;;;;;;;;;4956377;28;20019;-52
2021/05/01 13:31:52;;;;;;;24.23;7.72;;;;;;;;;;4956401;29;20108;-53
2021/05/01 13:34:21;;;;;;;18.20;5.60;;;;;;;;;;4956040;29;20027;-54
2021/05/01 13:36:48;;;;;;;22.65;7.38;;;;;;;;;;4956112;29;20031;-54
2021/05/01 13:39:18;;;;;;;24.10;12.88;;;;;;;;;;4956052;29;20024;-54
2021/05/01 13:42:01;;;;;;;14.83;4.73;;;;;;;;;;4955131;28;20480;-47
2021/05/01 13:44:39;;;;;;;13.98;4.45;;;;;;;;;;4956260;29;20028;-53
2021/05/01 13:47:06;;;;;;;17.05;6.00;;;;;;;;;;4956010;29;20387;-55
2021/05/01 13:49:32;;;;;;;25.27;12.00;;;;;;;;;;4955970;29;20487;-53
2021/05/01 13:52:02;;;;;;;17.30;4.93;;;;;;;;;;4956022;29;20027;-54
2021/05/01 13:54:28;;;;;;;27.80;7.88;;;;;;;;;;4955791;29;20027;-54
2021/05/01 13:56:55;;;;;;;16.30;6.40;;;;;;;;;;4955696;29;20020;-54
2021/05/01 13:59:28;;;;;;;14.27;4.57;;;;;;;;;;4955671;29;20027;-55
2021/05/01 14:01:55;;;;;;;15.55;4.20;;;;;;;;;;4955481;29;20156;-54
2021/05/01 14:04:31;;;;;;;15.48;6.97;;;;;;;;;;4955793;29;20099;-54
2021/05/01 14:06:57;;;;;;;15.65;4.65;;;;;;;;;;4955349;29;20138;-54
2021/05/01 14:09:30;;;;;;;16.80;5.10;;;;;;;;;;4955589;29;20074;-53
2021/05/01 14:11:57;;;;;;;16.98;4.60;;;;;;;;;;4955598;29;20038;-54
2021/05/01 14:14:25;;;;;;;16.10;4.88;;;;;;;;;;4955418;29;20032;-54
2021/05/01 14:17:19;;;;;;;19.35;5.95;;;;;;;;;;4955233;29;20039;-51
2021/05/01 14:19:53;;;;;;;26.45;6.18;;;;;;;;;;4952210;29;20076;-53
2021/05/01 14:22:19;;;;;;;19.35;4.53;;;;;;;;;;4955413;29;20074;-53
2021/05/01 14:24:46;;;;;;;17.13;4.25;;;;;;;;;;4955032;29;20558;-53
2021/05/01 14:27:12;;;;;;;29.85;5.80;;;;;;;;;;4955271;28;20027;-53
2021/05/01 14:29:38;;;;;;;27.10;15.85;;;;;;;;;;4955428;29;20483;-54
2021/05/01 14:32:12;;;;;;;137.30;70.97;;;;;;;;;;4955138;29;20042;-54
2021/05/01 14:34:38;;;;;;;34.90;11.05;;;;;;;;;;4955145;29;20030;-54